sensor_id;sensor_type;location;lat;lon;timestamp;P1;durP1;ratioP1;P2;durP2;ratioP2
23494;SDS011;26107;50.832;2.950;2023-05-18T12:48:44;7.57;;;3.58;;
23494;SDS011;26107;50.832;2.950;2023-05-18T13:03:53;6.28;;;3.22;;
23494;SDS011;26107;50.832;2.950;2023-05-18T13:18:59;4.78;;;2.80;;
23494;SDS011;26107;50.832;2.950;2023-05-18T13:34:02;6.13;;;2.97;;
23494;SDS011;26107;50.832;2.950;2023-05-18T13:49:02;6.93;;;3.47;;
23494;SDS011;26107;50.832;2.950;2023-05-18T14:04:03;6.60;;;2.85;;
23494;SDS011;26107;50.832;2.950;2023-05-18T14:19:03;7.05;;;3.47;;
23494;SDS011;26107;50.832;2.950;2023-05-18T14:34:04;14.55;;;4.97;;
23494;SDS011;26107;50.832;2.950;2023-05-18T15:04:05;10.95;;;3.38;;
23494;SDS011;26107;50.832;2.950;2023-05-18T15:19:06;10.18;;;5.57;;
23494;SDS011;26107;50.832;2.950;2023-05-18T15:34:07;9.25;;;5.15;;
23494;SDS011;26107;50.832;2.950;2023-05-18T16:04:08;8.82;;;4.30;;
23494;SDS011;26107;50.832;2.950;2023-05-18T16:19:08;6.45;;;3.55;;
23494;SDS011;26107;50.832;2.950;2023-05-18T16:34:09;8.95;;;3.55;;
23494;SDS011;26107;50.832;2.950;2023-05-18T16:49:09;5.18;;;3.10;;
23494;SDS011;26107;50.832;2.950;2023-05-18T17:04:10;10.38;;;3.45;;
23494;SDS011;26107;50.832;2.950;2023-05-18T17:19:11;9.50;;;2.75;;
23494;SDS011;26107;50.832;2.950;2023-05-18T17:34:11;7.57;;;3.53;;
23494;SDS011;26107;50.832;2.950;2023-05-18T17:49:12;11.50;;;3.05;;
23494;SDS011;26107;50.832;2.950;2023-05-18T18:04:13;5.47;;;2.93;;
23494;SDS011;26107;50.832;2.950;2023-05-18T18:19:14;7.85;;;3.55;;
23494;SDS011;26107;50.832;2.950;2023-05-18T18:34:14;10.85;;;4.28;;
23494;SDS011;26107;50.832;2.950;2023-05-18T18:49:15;16.35;;;5.40;;
23494;SDS011;26107;50.832;2.950;2023-05-18T19:04:15;7.43;;;3.53;;
23494;SDS011;26107;50.832;2.950;2023-05-18T19:19:16;8.23;;;3.65;;
23494;SDS011;26107;50.832;2.950;2023-05-18T19:34:17;8.35;;;4.00;;
23494;SDS011;26107;50.832;2.950;2023-05-18T19:49:17;14.90;;;4.95;;
23494;SDS011;26107;50.832;2.950;2023-05-18T20:04:18;10.80;;;4.63;;
23494;SDS011;26107;50.832;2.950;2023-05-18T20:19:22;13.45;;;4.55;;
23494;SDS011;26107;50.832;2.950;2023-05-18T20:34:22;13.25;;;4.65;;
23494;SDS011;26107;50.832;2.950;2023-05-18T20:49:23;13.43;;;4.72;;
23494;SDS011;26107;50.832;2.950;2023-05-18T21:04:24;12.73;;;4.53;;
23494;SDS011;26107;50.832;2.950;2023-05-18T21:19:24;13.68;;;4.50;;
23494;SDS011;26107;50.832;2.950;2023-05-18T21:34:25;9.52;;;4.80;;
23494;SDS011;26107;50.832;2.950;2023-05-18T21:49:25;12.50;;;5.68;;
23494;SDS011;26107;50.832;2.950;2023-05-18T22:04:26;11.38;;;5.82;;
23494;SDS011;26107;50.832;2.950;2023-05-18T22:19:27;11.70;;;5.63;;
23494;SDS011;26107;50.832;2.950;2023-05-18T22:34:27;10.98;;;5.53;;
23494;SDS011;26107;50.832;2.950;2023-05-18T22:49:28;12.45;;;6.00;;
23494;SDS011;26107;50.832;2.950;2023-05-18T23:04:28;5.80;;;3.83;;
23494;SDS011;26107;50.832;2.950;2023-05-18T23:19:29;11.73;;;6.07;;
23494;SDS011;26107;50.832;2.950;2023-05-18T23:34:30;11.37;;;5.83;;
23494;SDS011;26107;50.832;2.950;2023-05-18T23:49:31;12.20;;;6.50;;
